sensor_id;sensor_type;location;lat;lon;timestamp;temperature;humidity
51739;DHT22;37815;52.692;6.226;2023-06-14T00:04:32;22.90;58.00
51739;DHT22;37815;52.692;6.226;2023-06-14T00:09:33;22.90;58.00
51739;DHT22;37815;52.692;6.226;2023-06-14T00:14:33;22.80;58.00
51739;DHT22;37815;52.692;6.226;2023-06-14T00:19:34;22.80;58.00
51739;DHT22;37815;52.692;6.226;2023-06-14T00:24:36;22.80;58.10
51739;DHT22;37815;52.692;6.226;2023-06-14T00:29:37;22.70;58.00
51739;DHT22;37815;52.692;6.226;2023-06-14T00:34:38;22.80;58.10
51739;DHT22;37815;52.692;6.226;2023-06-14T00:39:39;22.70;58.00
51739;DHT22;37815;52.692;6.226;2023-06-14T00:44:40;22.60;58.00
51739;DHT22;37815;52.692;6.226;2023-06-14T00:49:41;22.60;58.10
51739;DHT22;37815;52.692;6.226;2023-06-14T00:54:43;22.50;58.00
51739;DHT22;37815;52.692;6.226;2023-06-14T00:59:46;22.50;58.00
51739;DHT22;37815;52.692;6.226;2023-06-14T01:04:48;22.50;58.10
51739;DHT22;37815;52.692;6.226;2023-06-14T01:15:15;22.40;58.10
51739;DHT22;37815;52.692;6.226;2023-06-14T01:20:16;22.40;58.10
51739;DHT22;37815;52.692;6.226;2023-06-14T01:25:18;22.30;58.10
51739;DHT22;37815;52.692;6.226;2023-06-14T01:30:22;22.40;58.20
51739;DHT22;37815;52.692;6.226;2023-06-14T01:35:23;22.30;58.20
51739;DHT22;37815;52.692;6.226;2023-06-14T01:40:24;22.20;58.20
51739;DHT22;37815;52.692;6.226;2023-06-14T01:45:25;22.20;58.20
51739;DHT22;37815;52.692;6.226;2023-06-14T01:50:31;22.20;58.30
51739;DHT22;37815;52.692;6.226;2023-06-14T01:55:32;22.10;58.30
51739;DHT22;37815;52.692;6.226;2023-06-14T02:00:37;22.10;58.30
51739;DHT22;37815;52.692;6.226;2023-06-14T02:05:38;22.00;58.30
51739;DHT22;37815;52.692;6.226;2023-06-14T02:10:40;22.00;58.40
51739;DHT22;37815;52.692;6.226;2023-06-14T02:15:40;22.00;58.30
51739;DHT22;37815;52.692;6.226;2023-06-14T02:20:44;21.90;58.40
51739;DHT22;37815;52.692;6.226;2023-06-14T02:25:44;21.90;58.50
51739;DHT22;37815;52.692;6.226;2023-06-14T02:30:46;21.90;58.50
51739;DHT22;37815;52.692;6.226;2023-06-14T02:35:46;21.80;58.50
51739;DHT22;37815;52.692;6.226;2023-06-14T02:40:47;21.80;58.50
51739;DHT22;37815;52.692;6.226;2023-06-14T02:45:48;21.80;58.60
51739;DHT22;37815;52.692;6.226;2023-06-14T02:50:49;21.80;58.70
51739;DHT22;37815;52.692;6.226;2023-06-14T02:55:49;21.70;58.70
51739;DHT22;37815;52.692;6.226;2023-06-14T03:00:50;21.70;58.80
51739;DHT22;37815;52.692;6.226;2023-06-14T03:05:52;21.70;58.80
51739;DHT22;37815;52.692;6.226;2023-06-14T03:10:54;21.70;58.90
51739;DHT22;37815;52.692;6.226;2023-06-14T03:15:56;21.60;58.90
51739;DHT22;37815;52.692;6.226;2023-06-14T03:20:57;21.60;59.00
51739;DHT22;37815;52.692;6.226;2023-06-14T03:25:58;21.50;59.00
51739;DHT22;37815;52.692;6.226;2023-06-14T03:30:59;21.50;59.10
51739;DHT22;37815;52.692;6.226;2023-06-14T03:36:02;21.50;59.20
51739;DHT22;37815;52.692;6.226;2023-06-14T03:41:03;21.50;59.30
51739;DHT22;37815;52.692;6.226;2023-06-14T03:46:03;21.40;59.30
51739;DHT22;37815;52.692;6.226;2023-06-14T03:51:04;21.40;59.40
51739;DHT22;37815;52.692;6.226;2023-06-14T03:56:05;21.40;59.40
51739;DHT22;37815;52.692;6.226;2023-06-14T04:01:05;21.30;59.50
51739;DHT22;37815;52.692;6.226;2023-06-14T04:06:07;21.30;59.60
51739;DHT22;37815;52.692;6.226;2023-06-14T04:11:08;21.30;59.60
51739;DHT22;37815;52.692;6.226;2023-06-14T04:16:08;21.30;59.70
51739;DHT22;37815;52.692;6.226;2023-06-14T04:21:09;21.20;59.70
51739;DHT22;37815;52.692;6.226;2023-06-14T04:26:10;21.20;59.80
51739;DHT22;37815;52.692;6.226;2023-06-14T04:31:11;21.20;60.00
51739;DHT22;37815;52.692;6.226;2023-06-14T04:36:12;21.20;59.90
51739;DHT22;37815;52.692;6.226;2023-06-14T04:41:13;21.20;60.10
51739;DHT22;37815;52.692;6.226;2023-06-14T04:46:14;21.10;60.10
51739;DHT22;37815;52.692;6.226;2023-06-14T04:51:15;21.10;60.10
51739;DHT22;37815;52.692;6.226;2023-06-14T04:56:15;21.10;60.20
51739;DHT22;37815;52.692;6.226;2023-06-14T05:01:22;21.10;60.30
51739;DHT22;37815;52.692;6.226;2023-06-14T05:06:23;21.10;60.30
51739;DHT22;37815;52.692;6.226;2023-06-14T05:11:24;21.00;60.30
51739;DHT22;37815;52.692;6.226;2023-06-14T05:16:24;21.00;60.40
51739;DHT22;37815;52.692;6.226;2023-06-14T05:21:27;20.60;62.00
51739;DHT22;37815;52.692;6.226;2023-06-14T05:26:28;20.30;63.20
51739;DHT22;37815;52.692;6.226;2023-06-14T05:31:29;20.00;63.90
51739;DHT22;37815;52.692;6.226;2023-06-14T05:36:29;19.80;64.60
51739;DHT22;37815;52.692;6.226;2023-06-14T05:41:30;19.60;65.20
51739;DHT22;37815;52.692;6.226;2023-06-14T05:46:31;19.40;65.50
51739;DHT22;37815;52.692;6.226;2023-06-14T05:51:31;19.30;65.80
51739;DHT22;37815;52.692;6.226;2023-06-14T05:56:32;19.20;66.10
51739;DHT22;37815;52.692;6.226;2023-06-14T06:01:32;19.20;66.50
51739;DHT22;37815;52.692;6.226;2023-06-14T06:06:34;19.00;66.80
51739;DHT22;37815;52.692;6.226;2023-06-14T06:11:36;18.90;67.50
51739;DHT22;37815;52.692;6.226;2023-06-14T06:16:36;18.90;66.90
51739;DHT22;37815;52.692;6.226;2023-06-14T06:21:37;19.00;67.00
51739;DHT22;37815;52.692;6.226;2023-06-14T06:26:37;19.10;66.80
51739;DHT22;37815;52.692;6.226;2023-06-14T06:31:40;19.20;66.90
51739;DHT22;37815;52.692;6.226;2023-06-14T06:36:41;19.40;67.00
51739;DHT22;37815;52.692;6.226;2023-06-14T06:41:42;19.30;66.90
51739;DHT22;37815;52.692;6.226;2023-06-14T06:46:43;19.40;67.00
51739;DHT22;37815;52.692;6.226;2023-06-14T06:52:02;19.50;67.10
51739;DHT22;37815;52.692;6.226;2023-06-14T06:57:03;19.60;67.60
51739;DHT22;37815;52.692;6.226;2023-06-14T07:02:04;19.60;66.80
51739;DHT22;37815;52.692;6.226;2023-06-14T07:07:05;19.70;66.80
51739;DHT22;37815;52.692;6.226;2023-06-14T07:12:06;19.60;66.60
51739;DHT22;37815;52.692;6.226;2023-06-14T07:17:07;19.80;66.50
51739;DHT22;37815;52.692;6.226;2023-06-14T07:22:07;19.80;66.40
51739;DHT22;37815;52.692;6.226;2023-06-14T07:27:08;19.90;66.30
51739;DHT22;37815;52.692;6.226;2023-06-14T07:32:09;19.90;66.30
51739;DHT22;37815;52.692;6.226;2023-06-14T07:37:09;20.00;66.40
51739;DHT22;37815;52.692;6.226;2023-06-14T07:42:10;20.10;66.10
51739;DHT22;37815;52.692;6.226;2023-06-14T07:47:11;20.10;66.20
51739;DHT22;37815;52.692;6.226;2023-06-14T07:52:11;20.20;66.10
51739;DHT22;37815;52.692;6.226;2023-06-14T07:57:13;20.30;66.10
51739;DHT22;37815;52.692;6.226;2023-06-14T08:02:14;20.40;65.90
51739;DHT22;37815;52.692;6.226;2023-06-14T08:07:15;20.90;65.80
51739;DHT22;37815;52.692;6.226;2023-06-14T08:12:15;20.50;65.30
51739;DHT22;37815;52.692;6.226;2023-06-14T08:17:16;20.50;65.20
51739;DHT22;37815;52.692;6.226;2023-06-14T08:22:17;20.60;65.10
51739;DHT22;37815;52.692;6.226;2023-06-14T08:27:18;20.60;65.00
51739;DHT22;37815;52.692;6.226;2023-06-14T08:32:19;20.80;65.10
51739;DHT22;37815;52.692;6.226;2023-06-14T08:37:20;20.90;65.10
51739;DHT22;37815;52.692;6.226;2023-06-14T08:42:21;21.00;64.90
51739;DHT22;37815;52.692;6.226;2023-06-14T08:47:26;20.90;64.30
51739;DHT22;37815;52.692;6.226;2023-06-14T08:52:28;21.00;63.80
51739;DHT22;37815;52.692;6.226;2023-06-14T08:57:30;21.00;63.80
51739;DHT22;37815;52.692;6.226;2023-06-14T09:02:32;21.10;63.60
51739;DHT22;37815;52.692;6.226;2023-06-14T09:07:36;21.10;63.70
51739;DHT22;37815;52.692;6.226;2023-06-14T09:12:39;21.20;64.00
51739;DHT22;37815;52.692;6.226;2023-06-14T09:17:42;21.30;63.20
51739;DHT22;37815;52.692;6.226;2023-06-14T09:27:47;21.60;62.80
51739;DHT22;37815;52.692;6.226;2023-06-14T09:32:47;21.60;62.50
51739;DHT22;37815;52.692;6.226;2023-06-14T09:37:48;21.60;62.40
51739;DHT22;37815;52.692;6.226;2023-06-14T09:42:49;21.70;62.50
51739;DHT22;37815;52.692;6.226;2023-06-14T09:47:51;21.80;62.00
51739;DHT22;37815;52.692;6.226;2023-06-14T09:52:52;21.80;61.30
51739;DHT22;37815;52.692;6.226;2023-06-14T09:57:57;21.80;61.10
51739;DHT22;37815;52.692;6.226;2023-06-14T10:03:14;22.10;60.90
51739;DHT22;37815;52.692;6.226;2023-06-14T10:08:19;22.00;60.70
51739;DHT22;37815;52.692;6.226;2023-06-14T10:13:23;22.10;60.80
51739;DHT22;37815;52.692;6.226;2023-06-14T10:23:29;22.30;60.50
51739;DHT22;37815;52.692;6.226;2023-06-14T10:28:30;22.40;59.50
51739;DHT22;37815;52.692;6.226;2023-06-14T10:33:40;22.40;59.50
51739;DHT22;37815;52.692;6.226;2023-06-14T10:49:19;22.60;58.00
51739;DHT22;37815;52.692;6.226;2023-06-14T10:54:20;22.70;58.50
51739;DHT22;37815;52.692;6.226;2023-06-14T10:59:21;22.90;58.50
51739;DHT22;37815;52.692;6.226;2023-06-14T11:04:44;22.90;58.00
51739;DHT22;37815;52.692;6.226;2023-06-14T11:15:00;23.00;57.90
51739;DHT22;37815;52.692;6.226;2023-06-14T11:20:13;23.10;57.90
51739;DHT22;37815;52.692;6.226;2023-06-14T11:25:17;23.20;57.70
51739;DHT22;37815;52.692;6.226;2023-06-14T11:30:18;23.10;57.70
51739;DHT22;37815;52.692;6.226;2023-06-14T11:35:21;23.30;57.00
51739;DHT22;37815;52.692;6.226;2023-06-14T11:40:24;23.30;57.20
51739;DHT22;37815;52.692;6.226;2023-06-14T11:45:32;23.40;57.80
51739;DHT22;37815;52.692;6.226;2023-06-14T11:50:37;23.60;56.50
51739;DHT22;37815;52.692;6.226;2023-06-14T11:55:39;23.60;56.00
51739;DHT22;37815;52.692;6.226;2023-06-14T12:00:40;23.50;56.00
51739;DHT22;37815;52.692;6.226;2023-06-14T12:05:42;23.60;54.80
51739;DHT22;37815;52.692;6.226;2023-06-14T12:10:44;23.60;55.20
51739;DHT22;37815;52.692;6.226;2023-06-14T12:15:44;23.70;55.50
51739;DHT22;37815;52.692;6.226;2023-06-14T12:20:49;23.90;55.00
51739;DHT22;37815;52.692;6.226;2023-06-14T12:25:50;24.00;55.60
51739;DHT22;37815;52.692;6.226;2023-06-14T12:30:52;24.00;55.90
51739;DHT22;37815;52.692;6.226;2023-06-14T12:35:55;24.10;55.40
51739;DHT22;37815;52.692;6.226;2023-06-14T12:40:57;24.10;55.70
51739;DHT22;37815;52.692;6.226;2023-06-14T12:45:58;24.20;56.00
51739;DHT22;37815;52.692;6.226;2023-06-14T12:50:58;24.40;56.10
51739;DHT22;37815;52.692;6.226;2023-06-14T12:55:59;24.60;56.20
51739;DHT22;37815;52.692;6.226;2023-06-14T13:01:00;24.80;55.90
51739;DHT22;37815;52.692;6.226;2023-06-14T13:06:01;24.90;56.00
51739;DHT22;37815;52.692;6.226;2023-06-14T13:11:02;25.00;55.80
51739;DHT22;37815;52.692;6.226;2023-06-14T13:16:03;25.00;55.80
51739;DHT22;37815;52.692;6.226;2023-06-14T13:21:03;25.10;56.00
51739;DHT22;37815;52.692;6.226;2023-06-14T13:26:04;25.00;56.40
51739;DHT22;37815;52.692;6.226;2023-06-14T13:31:05;24.90;56.70
51739;DHT22;37815;52.692;6.226;2023-06-14T13:36:06;24.90;56.90
51739;DHT22;37815;52.692;6.226;2023-06-14T13:41:06;24.90;57.00
51739;DHT22;37815;52.692;6.226;2023-06-14T13:46:07;25.00;57.00
51739;DHT22;37815;52.692;6.226;2023-06-14T13:51:07;25.00;57.20
51739;DHT22;37815;52.692;6.226;2023-06-14T13:56:08;25.00;57.20
51739;DHT22;37815;52.692;6.226;2023-06-14T14:01:09;25.10;57.20
51739;DHT22;37815;52.692;6.226;2023-06-14T14:06:09;25.20;57.30
51739;DHT22;37815;52.692;6.226;2023-06-14T14:11:16;25.20;57.40
51739;DHT22;37815;52.692;6.226;2023-06-14T14:16:17;25.30;57.40
51739;DHT22;37815;52.692;6.226;2023-06-14T14:21:18;25.40;57.40
51739;DHT22;37815;52.692;6.226;2023-06-14T14:26:18;25.50;57.30
51739;DHT22;37815;52.692;6.226;2023-06-14T14:31:19;25.50;57.30
51739;DHT22;37815;52.692;6.226;2023-06-14T14:36:20;25.60;57.30
51739;DHT22;37815;52.692;6.226;2023-06-14T14:41:20;25.70;57.40
51739;DHT22;37815;52.692;6.226;2023-06-14T14:46:21;25.80;57.40
51739;DHT22;37815;52.692;6.226;2023-06-14T14:51:22;25.90;57.30
51739;DHT22;37815;52.692;6.226;2023-06-14T14:56:22;26.00;57.40
51739;DHT22;37815;52.692;6.226;2023-06-14T15:01:23;26.10;57.30
51739;DHT22;37815;52.692;6.226;2023-06-14T15:06:23;26.20;57.20
51739;DHT22;37815;52.692;6.226;2023-06-14T15:11:24;26.30;57.20
51739;DHT22;37815;52.692;6.226;2023-06-14T15:16:25;26.40;57.20
51739;DHT22;37815;52.692;6.226;2023-06-14T15:21:26;26.50;57.00
51739;DHT22;37815;52.692;6.226;2023-06-14T15:26:27;26.50;56.40
51739;DHT22;37815;52.692;6.226;2023-06-14T15:31:28;26.70;56.00
51739;DHT22;37815;52.692;6.226;2023-06-14T15:36:29;26.60;55.50
51739;DHT22;37815;52.692;6.226;2023-06-14T15:41:29;26.50;54.50
51739;DHT22;37815;52.692;6.226;2023-06-14T15:46:30;26.20;54.50
51739;DHT22;37815;52.692;6.226;2023-06-14T15:51:31;26.20;55.00
51739;DHT22;37815;52.692;6.226;2023-06-14T15:56:32;26.20;55.10
51739;DHT22;37815;52.692;6.226;2023-06-14T16:01:32;26.20;55.10
51739;DHT22;37815;52.692;6.226;2023-06-14T16:06:33;26.10;55.00
51739;DHT22;37815;52.692;6.226;2023-06-14T16:11:36;25.80;55.30
51739;DHT22;37815;52.692;6.226;2023-06-14T16:16:37;25.70;55.10
51739;DHT22;37815;52.692;6.226;2023-06-14T16:21:37;25.60;55.20
51739;DHT22;37815;52.692;6.226;2023-06-14T16:26:38;25.50;55.10
51739;DHT22;37815;52.692;6.226;2023-06-14T16:31:39;25.40;55.40
51739;DHT22;37815;52.692;6.226;2023-06-14T16:36:40;25.30;55.80
51739;DHT22;37815;52.692;6.226;2023-06-14T16:41:40;25.30;55.60
51739;DHT22;37815;52.692;6.226;2023-06-14T16:46:41;25.30;55.40
51739;DHT22;37815;52.692;6.226;2023-06-14T16:51:41;25.20;55.00
51739;DHT22;37815;52.692;6.226;2023-06-14T16:56:42;25.20;55.10
51739;DHT22;37815;52.692;6.226;2023-06-14T17:01:42;25.20;55.30
51739;DHT22;37815;52.692;6.226;2023-06-14T17:06:43;25.10;55.50
51739;DHT22;37815;52.692;6.226;2023-06-14T17:11:44;25.00;55.70
51739;DHT22;37815;52.692;6.226;2023-06-14T17:16:44;25.00;55.80
51739;DHT22;37815;52.692;6.226;2023-06-14T17:21:45;25.00;55.70
51739;DHT22;37815;52.692;6.226;2023-06-14T17:26:49;24.90;55.60
51739;DHT22;37815;52.692;6.226;2023-06-14T17:31:51;24.90;55.50
51739;DHT22;37815;52.692;6.226;2023-06-14T17:36:51;24.90;56.20
51739;DHT22;37815;52.692;6.226;2023-06-14T17:41:52;24.80;56.10
51739;DHT22;37815;52.692;6.226;2023-06-14T17:46:53;24.80;55.80
51739;DHT22;37815;52.692;6.226;2023-06-14T17:51:54;24.70;55.30
51739;DHT22;37815;52.692;6.226;2023-06-14T17:56:54;24.70;55.30
51739;DHT22;37815;52.692;6.226;2023-06-14T18:01:55;24.60;55.40
51739;DHT22;37815;52.692;6.226;2023-06-14T18:06:56;24.60;55.40
51739;DHT22;37815;52.692;6.226;2023-06-14T18:11:56;24.60;55.60
51739;DHT22;37815;52.692;6.226;2023-06-14T18:16:58;24.50;55.90
51739;DHT22;37815;52.692;6.226;2023-06-14T18:21:59;24.50;56.10
51739;DHT22;37815;52.692;6.226;2023-06-14T18:27:00;24.50;56.30
51739;DHT22;37815;52.692;6.226;2023-06-14T18:32:02;24.30;56.30
51739;DHT22;37815;52.692;6.226;2023-06-14T18:37:03;24.30;56.30
51739;DHT22;37815;52.692;6.226;2023-06-14T18:42:04;24.30;56.40
51739;DHT22;37815;52.692;6.226;2023-06-14T18:47:06;24.20;56.50
51739;DHT22;37815;52.692;6.226;2023-06-14T18:52:09;24.20;56.60
51739;DHT22;37815;52.692;6.226;2023-06-14T18:57:10;24.10;56.70
51739;DHT22;37815;52.692;6.226;2023-06-14T19:02:11;24.10;56.90
51739;DHT22;37815;52.692;6.226;2023-06-14T19:07:12;24.00;57.00
51739;DHT22;37815;52.692;6.226;2023-06-14T19:12:13;24.00;57.20
51739;DHT22;37815;52.692;6.226;2023-06-14T19:17:13;23.90;57.40
51739;DHT22;37815;52.692;6.226;2023-06-14T19:22:14;23.80;57.60
51739;DHT22;37815;52.692;6.226;2023-06-14T19:27:14;23.80;57.80
51739;DHT22;37815;52.692;6.226;2023-06-14T19:32:15;23.80;58.80
51739;DHT22;37815;52.692;6.226;2023-06-14T19:37:16;23.70;58.40
51739;DHT22;37815;52.692;6.226;2023-06-14T19:42:16;23.60;58.70
51739;DHT22;37815;52.692;6.226;2023-06-14T19:47:17;23.40;59.20
51739;DHT22;37815;52.692;6.226;2023-06-14T19:52:17;23.30;59.40
51739;DHT22;37815;52.692;6.226;2023-06-14T19:57:18;23.20;59.60
51739;DHT22;37815;52.692;6.226;2023-06-14T20:02:19;23.10;59.70
51739;DHT22;37815;52.692;6.226;2023-06-14T20:07:20;22.90;59.80
51739;DHT22;37815;52.692;6.226;2023-06-14T20:12:21;22.70;60.10
51739;DHT22;37815;52.692;6.226;2023-06-14T20:17:21;22.70;60.30
51739;DHT22;37815;52.692;6.226;2023-06-14T20:22:23;22.90;60.20
51739;DHT22;37815;52.692;6.226;2023-06-14T20:27:24;23.10;60.00
51739;DHT22;37815;52.692;6.226;2023-06-14T20:32:24;23.20;59.80
51739;DHT22;37815;52.692;6.226;2023-06-14T20:37:27;23.20;59.70
51739;DHT22;37815;52.692;6.226;2023-06-14T20:42:28;23.40;59.70
51739;DHT22;37815;52.692;6.226;2023-06-14T20:47:29;23.50;59.80
51739;DHT22;37815;52.692;6.226;2023-06-14T20:52:30;23.50;59.90
51739;DHT22;37815;52.692;6.226;2023-06-14T20:57:31;23.60;59.90
51739;DHT22;37815;52.692;6.226;2023-06-14T21:02:31;23.50;59.90
51739;DHT22;37815;52.692;6.226;2023-06-14T21:07:32;23.60;60.00
51739;DHT22;37815;52.692;6.226;2023-06-14T21:12:33;23.60;60.10
51739;DHT22;37815;52.692;6.226;2023-06-14T21:17:33;23.60;60.30
51739;DHT22;37815;52.692;6.226;2023-06-14T21:22:36;23.60;60.30
51739;DHT22;37815;52.692;6.226;2023-06-14T21:27:36;23.60;60.50
51739;DHT22;37815;52.692;6.226;2023-06-14T21:32:37;23.50;60.40
51739;DHT22;37815;52.692;6.226;2023-06-14T21:37:39;23.50;60.50
51739;DHT22;37815;52.692;6.226;2023-06-14T21:42:40;23.50;60.70
51739;DHT22;37815;52.692;6.226;2023-06-14T21:47:41;23.50;60.80
51739;DHT22;37815;52.692;6.226;2023-06-14T21:52:41;23.40;60.80
51739;DHT22;37815;52.692;6.226;2023-06-14T21:57:42;23.40;60.90
51739;DHT22;37815;52.692;6.226;2023-06-14T22:02:43;23.40;61.00
51739;DHT22;37815;52.692;6.226;2023-06-14T22:07:43;23.40;61.10
51739;DHT22;37815;52.692;6.226;2023-06-14T22:12:45;23.30;61.20
51739;DHT22;37815;52.692;6.226;2023-06-14T22:17:46;23.30;61.30
51739;DHT22;37815;52.692;6.226;2023-06-14T22:22:47;23.30;61.50
51739;DHT22;37815;52.692;6.226;2023-06-14T22:27:48;23.30;61.50
51739;DHT22;37815;52.692;6.226;2023-06-14T22:32:48;23.20;61.50
51739;DHT22;37815;52.692;6.226;2023-06-14T22:37:51;23.20;61.50
51739;DHT22;37815;52.692;6.226;2023-06-14T22:42:52;23.20;61.60
51739;DHT22;37815;52.692;6.226;2023-06-14T22:47:53;23.20;61.70
51739;DHT22;37815;52.692;6.226;2023-06-14T22:52:54;23.10;61.80
51739;DHT22;37815;52.692;6.226;2023-06-14T22:57:54;23.10;61.80
51739;DHT22;37815;52.692;6.226;2023-06-14T23:02:55;23.10;61.90
51739;DHT22;37815;52.692;6.226;2023-06-14T23:07:57;23.00;61.90
51739;DHT22;37815;52.692;6.226;2023-06-14T23:12:57;23.00;62.00
51739;DHT22;37815;52.692;6.226;2023-06-14T23:17:59;23.00;62.00
51739;DHT22;37815;52.692;6.226;2023-06-14T23:23:00;23.00;62.10
51739;DHT22;37815;52.692;6.226;2023-06-14T23:28:06;22.90;62.20
51739;DHT22;37815;52.692;6.226;2023-06-14T23:33:07;22.90;62.20
51739;DHT22;37815;52.692;6.226;2023-06-14T23:38:08;22.80;62.20
51739;DHT22;37815;52.692;6.226;2023-06-14T23:43:12;22.80;62.30
51739;DHT22;37815;52.692;6.226;2023-06-14T23:48:14;22.80;62.40
51739;DHT22;37815;52.692;6.226;2023-06-14T23:53:15;22.70;62.40
51739;DHT22;37815;52.692;6.226;2023-06-14T23:58:15;22.70;62.40
